createdAt,value
2022-08-04T00:00:11.672Z,2.67
2022-08-04T00:02:56.986Z,1.13
2022-08-04T00:05:29.667Z,1.83
2022-08-04T00:08:06.496Z,2.28
2022-08-04T00:10:36.810Z,1.55
2022-08-04T00:13:05.155Z,1.63
2022-08-04T00:15:33.603Z,1.40
2022-08-04T00:18:09.537Z,2.60
2022-08-04T00:20:40.821Z,1.27
2022-08-04T00:23:08.691Z,2.17
2022-08-04T00:25:40.792Z,1.50
2022-08-04T00:28:07.502Z,1.63
2022-08-04T00:30:33.986Z,1.65
2022-08-04T00:33:00.583Z,1.45
2022-08-04T00:35:29.147Z,3.30
2022-08-04T00:38:18.637Z,1.02
2022-08-04T00:40:45.104Z,1.42
2022-08-04T00:43:29.943Z,1.58
2022-08-04T00:46:44.761Z,3.10
2022-08-04T00:49:11.134Z,1.50
2022-08-04T00:51:40.278Z,4.25
2022-08-04T00:54:26.155Z,2.78
2022-08-04T00:57:02.035Z,1.55
2022-08-04T00:59:53.530Z,1.52
2022-08-04T01:02:35.851Z,1.35
2022-08-04T01:05:24.710Z,1.02
2022-08-04T01:08:01.080Z,2.33
2022-08-04T01:10:33.831Z,2.25
2022-08-04T01:13:15.452Z,1.58
2022-08-04T01:15:59.763Z,5.68
2022-08-04T01:18:58.831Z,0.80
2022-08-04T01:21:37.538Z,3.20
2022-08-04T01:24:03.917Z,3.58
2022-08-04T01:26:58.042Z,2.33
2022-08-04T01:29:37.578Z,3.28
2022-08-04T01:32:32.318Z,1.85
2022-08-04T01:35:08.983Z,2.90
2022-08-04T01:38:18.457Z,1.30
2022-08-04T01:40:53.979Z,2.70
2022-08-04T01:43:21.555Z,1.42
2022-08-04T01:45:57.395Z,2.13
2022-08-04T01:48:25.993Z,2.22
2022-08-04T01:50:53.928Z,2.67
2022-08-04T01:53:21.327Z,2.35
2022-08-04T01:55:55.604Z,3.03
2022-08-04T01:58:24.133Z,1.48
2022-08-04T02:00:57.424Z,1.88
2022-08-04T02:03:24.566Z,3.55
2022-08-04T02:06:31.545Z,3.08
2022-08-04T02:09:16.753Z,2.10
2022-08-04T02:11:52.956Z,4.70
2022-08-04T02:14:45.546Z,3.05
2022-08-04T02:17:32.333Z,2.58
2022-08-04T02:20:07.778Z,3.90
2022-08-04T02:22:41.734Z,3.47
2022-08-04T02:25:10.668Z,3.28
2022-08-04T02:28:04.313Z,2.78
2022-08-04T02:30:52.599Z,2.80
2022-08-04T02:33:26.701Z,2.47
2022-08-04T02:39:02.200Z,1.55
2022-08-04T02:41:30.438Z,1.65
2022-08-04T02:44:00.774Z,2.03
2022-08-04T02:46:28.615Z,1.40
2022-08-04T02:48:56.030Z,5.72
2022-08-04T02:51:32.008Z,5.82
2022-08-04T02:54:00.451Z,4.13
2022-08-04T02:56:30.157Z,2.85
2022-08-04T02:59:00.627Z,1.92
2022-08-04T03:01:27.372Z,1.80
2022-08-04T03:04:12.723Z,4.50
2022-08-04T03:10:18.700Z,2.33
2022-08-04T03:12:51.299Z,1.97
2022-08-04T03:15:46.970Z,3.03
2022-08-04T03:18:49.639Z,1.83
2022-08-04T03:21:43.186Z,2.70
2022-08-04T03:24:27.693Z,2.50
2022-08-04T03:27:05.226Z,1.88
2022-08-04T03:29:43.677Z,3.47
2022-08-04T03:32:28.877Z,2.28
2022-08-04T03:35:43.609Z,1.80
2022-08-04T03:38:31.760Z,3.08
2022-08-04T03:41:51.915Z,3.95
2022-08-04T03:44:33.609Z,3.38
2022-08-04T03:47:42.172Z,3.35
2022-08-04T03:50:28.979Z,1.65
2022-08-04T03:53:10.609Z,3.25
2022-08-04T03:56:14.715Z,2.17
2022-08-04T03:59:02.510Z,3.75
2022-08-04T04:02:02.537Z,2.25
2022-08-04T04:05:20.727Z,3.43
2022-08-04T04:08:07.261Z,3.85
2022-08-04T04:11:14.580Z,2.65
2022-08-04T04:14:01.834Z,3.22
2022-08-04T04:16:43.965Z,2.67
2022-08-04T04:19:29.171Z,4.05
2022-08-04T04:22:15.829Z,2.95
2022-08-04T04:25:09.168Z,1.98
2022-08-04T04:28:44.625Z,2.65
2022-08-04T04:31:24.617Z,2.78
2022-08-04T04:34:03.321Z,2.97
2022-08-04T04:36:58.300Z,2.28
2022-08-04T04:39:53.654Z,3.42
2022-08-04T04:42:29.214Z,2.55
2022-08-04T04:45:25.066Z,3.50
2022-08-04T04:48:31.099Z,2.47
2022-08-04T04:51:21.418Z,2.47
2022-08-04T04:54:00.390Z,3.28
2022-08-04T04:56:51.418Z,4.13
2022-08-04T04:59:22.442Z,2.28
2022-08-04T05:02:21.710Z,8.05
2022-08-04T05:05:06.708Z,3.65
2022-08-04T05:08:43.359Z,3.35
2022-08-04T05:11:21.349Z,1.60
2022-08-04T05:14:35.370Z,2.83
2022-08-04T05:17:18.575Z,9.57
2022-08-04T05:19:54.149Z,2.35
2022-08-04T05:22:35.590Z,5.18
2022-08-04T05:25:07.191Z,1.83
2022-08-04T05:27:51.567Z,2.00
2022-08-04T05:33:03.989Z,5.38
2022-08-04T05:36:16.514Z,1.60
2022-08-04T05:38:31.584Z,3.42
2022-08-04T05:40:58.835Z,1.77
2022-08-04T05:43:26.632Z,3.13
2022-08-04T05:45:54.533Z,4.75
2022-08-04T05:48:21.423Z,6.20
2022-08-04T05:50:48.318Z,6.22
2022-08-04T05:53:16.707Z,4.70
2022-08-04T05:55:57.445Z,4.35
2022-08-04T05:58:29.974Z,7.05
2022-08-04T06:00:58.297Z,4.55
2022-08-04T06:03:26.974Z,5.32
2022-08-04T06:05:54.661Z,4.85
2022-08-04T06:08:21.236Z,5.80
2022-08-04T06:10:49.267Z,6.68
2022-08-04T06:13:47.760Z,5.70
2022-08-04T06:16:17.794Z,6.13
2022-08-04T06:20:00.271Z,11.43
2022-08-04T06:21:34.913Z,13.52
2022-08-04T06:24:04.814Z,10.48
2022-08-04T06:26:34.672Z,13.02
2022-08-04T06:29:02.474Z,12.60
2022-08-04T06:32:30.237Z,9.52
2022-08-04T06:34:31.773Z,8.80
2022-08-04T06:36:59.021Z,7.60
2022-08-04T06:39:27.846Z,8.18
2022-08-04T06:42:17.088Z,10.82
2022-08-04T06:44:44.047Z,8.70
2022-08-04T06:47:14.034Z,5.43
2022-08-04T06:49:55.100Z,9.07
2022-08-04T06:52:28.644Z,12.73
2022-08-04T06:54:58.036Z,7.28
2022-08-04T06:57:29.798Z,6.22
2022-08-04T07:00:01.480Z,6.53
2022-08-04T07:02:31.842Z,8.23
2022-08-04T07:04:58.801Z,7.70
2022-08-04T07:07:36.869Z,11.23
2022-08-04T07:10:13.119Z,10.88
2022-08-04T07:12:48.616Z,6.78
2022-08-04T07:15:18.146Z,5.22
2022-08-04T07:17:46.676Z,6.03
2022-08-04T07:20:16.832Z,7.15
2022-08-04T07:23:02.053Z,4.32
2022-08-04T07:26:00.108Z,8.10
2022-08-04T07:28:15.555Z,6.40
2022-08-04T07:30:44.108Z,5.88
2022-08-04T07:33:11.330Z,6.00
2022-08-04T07:36:06.039Z,4.60
2022-08-04T07:38:27.783Z,5.65
2022-08-04T07:40:55.303Z,9.90
2022-08-04T07:43:22.677Z,5.18
2022-08-04T07:45:49.474Z,4.82
2022-08-04T07:48:18.772Z,5.15
2022-08-04T07:50:46.924Z,7.07
2022-08-04T07:53:55.284Z,6.53
2022-08-04T07:56:02.586Z,4.70
2022-08-04T07:58:30.191Z,5.55
2022-08-04T08:00:58.006Z,4.57
2022-08-04T08:03:26.818Z,4.30
2022-08-04T08:06:17.630Z,5.50
2022-08-04T08:08:40.656Z,7.07
2022-08-04T08:11:07.546Z,4.95
2022-08-04T08:13:34.807Z,6.80
2022-08-04T08:16:02.426Z,3.67
2022-08-04T08:18:30.094Z,4.70
2022-08-04T08:20:57.289Z,6.10
2022-08-04T08:23:24.543Z,6.20
2022-08-04T08:25:51.726Z,3.60
2022-08-04T08:28:18.446Z,4.32
2022-08-04T08:30:44.909Z,5.63
2022-08-04T08:33:14.160Z,3.13
2022-08-04T08:35:58.682Z,6.28
2022-08-04T08:39:00.283Z,4.88
2022-08-04T08:41:52.152Z,3.97
2022-08-04T08:44:37.582Z,3.80
2022-08-04T08:47:20.667Z,4.03
2022-08-04T08:50:02.293Z,3.78
2022-08-04T08:53:00.909Z,4.15
2022-08-04T08:55:35.567Z,3.28
2022-08-04T08:58:24.083Z,5.90
2022-08-04T09:01:08.844Z,4.22
2022-08-04T09:04:31.980Z,4.13
2022-08-04T09:07:07.649Z,3.88
2022-08-04T09:09:49.388Z,3.35
2022-08-04T09:12:32.862Z,4.43
2022-08-04T09:15:43.776Z,4.43
2022-08-04T09:18:12.919Z,7.57
2022-08-04T09:20:47.656Z,3.65
2022-08-04T09:23:23.869Z,3.58
2022-08-04T09:26:01.184Z,4.82
2022-08-04T09:28:52.758Z,3.33
2022-08-04T09:31:24.235Z,4.57
2022-08-04T09:33:59.766Z,3.55
2022-08-04T09:36:53.111Z,4.15
2022-08-04T09:39:26.497Z,2.88
2022-08-04T09:42:14.579Z,4.78
2022-08-04T09:44:56.188Z,3.40
2022-08-04T09:47:40.700Z,4.30
2022-08-04T09:50:19.839Z,4.18
2022-08-04T09:52:52.197Z,2.47
2022-08-04T09:55:53.253Z,2.63
2022-08-04T09:58:55.847Z,2.83
2022-08-04T10:01:27.539Z,1.98
2022-08-04T10:04:05.912Z,3.70
2022-08-04T10:07:00.744Z,4.30
2022-08-04T10:09:42.836Z,3.58
2022-08-04T10:12:29.138Z,2.50
2022-08-04T10:15:15.129Z,4.35
2022-08-04T10:17:54.233Z,3.50
2022-08-04T10:20:44.878Z,3.47
2022-08-04T10:23:27.526Z,2.78
2022-08-04T10:26:08.603Z,2.83
2022-08-04T10:28:45.772Z,2.25
2022-08-04T10:31:19.147Z,2.75
2022-08-04T10:33:54.695Z,3.70
2022-08-04T10:36:26.796Z,2.28
2022-08-04T10:39:42.279Z,3.85
2022-08-04T10:42:11.097Z,2.45
2022-08-04T10:44:57.322Z,3.85
2022-08-04T10:47:31.939Z,3.28
2022-08-04T10:50:01.696Z,2.60
2022-08-04T10:52:33.838Z,1.88
2022-08-04T10:55:20.014Z,2.85
2022-08-04T10:57:59.889Z,2.50
2022-08-04T11:00:28.511Z,2.95
2022-08-04T11:03:04.077Z,2.67
2022-08-04T11:05:34.319Z,3.20
2022-08-04T11:08:20.551Z,2.70
2022-08-04T11:11:25.863Z,2.05
2022-08-04T11:14:16.841Z,2.60
2022-08-04T11:16:49.644Z,3.25
2022-08-04T11:19:53.459Z,2.83
2022-08-04T11:22:25.464Z,3.05
2022-08-04T11:25:00.874Z,4.38
2022-08-04T11:27:43.657Z,2.40
2022-08-04T11:30:13.502Z,2.10
2022-08-04T11:33:07.886Z,2.72
2022-08-04T11:36:02.088Z,2.72
2022-08-04T11:38:37.631Z,2.72
2022-08-04T11:41:10.955Z,2.30
2022-08-04T11:43:56.439Z,3.08
2022-08-04T11:46:44.143Z,2.80
2022-08-04T11:49:21.814Z,2.55
2022-08-04T11:51:51.639Z,1.95
2022-08-04T11:54:19.170Z,2.15
2022-08-04T11:56:46.345Z,2.10
2022-08-04T11:59:12.800Z,2.45
2022-08-04T12:02:02.225Z,2.25
2022-08-04T12:04:47.557Z,2.58
2022-08-04T12:07:30.689Z,2.22
2022-08-04T12:10:37.952Z,2.95
2022-08-04T12:13:30.067Z,2.30
2022-08-04T12:16:38.731Z,2.00
2022-08-04T12:19:46.212Z,5.35
2022-08-04T12:22:31.497Z,2.25
2022-08-04T12:25:03.927Z,2.40
2022-08-04T12:27:39.936Z,3.42
2022-08-04T12:30:57.435Z,2.55
2022-08-04T12:33:03.668Z,3.00
2022-08-04T12:36:10.074Z,2.33
2022-08-04T12:38:32.636Z,2.25
2022-08-04T12:41:04.456Z,2.28
2022-08-04T12:43:43.360Z,2.80
2022-08-04T12:46:13.206Z,2.35
2022-08-04T12:48:46.121Z,2.67
2022-08-04T12:52:06.733Z,3.70
2022-08-04T12:54:00.369Z,2.50
2022-08-04T12:56:29.753Z,2.47
2022-08-04T12:59:03.279Z,2.58
2022-08-04T13:02:08.645Z,3.47
2022-08-04T13:04:29.198Z,6.28
2022-08-04T13:07:24.100Z,3.78
2022-08-04T13:09:51.819Z,3.03
2022-08-04T13:12:32.214Z,3.13
2022-08-04T13:15:10.745Z,3.00
2022-08-04T13:17:59.866Z,2.22
2022-08-04T13:20:30.390Z,2.42
2022-08-04T13:23:10.927Z,1.88
2022-08-04T13:26:43.480Z,5.10
2022-08-04T13:28:34.299Z,2.33
2022-08-04T13:31:05.435Z,2.55
2022-08-04T13:33:38.208Z,2.88
2022-08-04T13:36:08.659Z,5.28
2022-08-04T13:38:38.301Z,2.45
2022-08-04T13:41:06.819Z,2.55
2022-08-04T13:44:18.563Z,3.05
2022-08-04T13:46:50.498Z,4.85
2022-08-04T13:49:42.750Z,1.92
2022-08-04T13:52:11.089Z,2.28
2022-08-04T13:54:43.613Z,3.30
2022-08-04T13:57:20.391Z,2.95
2022-08-04T13:59:54.192Z,7.50
2022-08-04T14:02:37.588Z,2.35
2022-08-04T14:05:18.157Z,2.47
2022-08-04T14:07:47.678Z,3.90
2022-08-04T14:10:15.207Z,2.75
2022-08-04T14:12:49.063Z,3.88
2022-08-04T14:16:03.823Z,3.25
2022-08-04T14:18:32.010Z,3.03
2022-08-04T14:20:59.722Z,2.92
2022-08-04T14:23:33.337Z,2.38
2022-08-04T14:26:00.194Z,4.32
2022-08-04T14:29:01.271Z,2.05
2022-08-04T14:31:21.610Z,5.53
2022-08-04T14:34:01.504Z,3.30
2022-08-04T14:37:13.932Z,4.78
2022-08-04T14:39:42.217Z,3.22
2022-08-04T14:42:42.304Z,2.75
2022-08-04T14:45:09.317Z,3.05
2022-08-04T14:47:52.830Z,2.40
2022-08-04T14:50:20.450Z,2.20
2022-08-04T14:52:46.979Z,4.95
2022-08-04T14:55:18.828Z,4.25
2022-08-04T14:58:36.110Z,4.03
2022-08-04T15:00:36.197Z,2.75
2022-08-04T15:03:08.597Z,5.68
2022-08-04T15:06:00.269Z,3.63
2022-08-04T15:08:29.246Z,3.55
2022-08-04T15:10:58.904Z,5.30
2022-08-04T15:13:29.139Z,4.10
2022-08-04T15:16:07.314Z,2.20
2022-08-04T15:18:36.371Z,3.97
2022-08-04T15:21:04.574Z,3.30
2022-08-04T15:23:38.368Z,1.60
2022-08-04T15:26:10.517Z,2.25
2022-08-04T15:28:39.859Z,3.03
2022-08-04T15:32:01.724Z,4.10
2022-08-04T15:33:55.835Z,4.75
2022-08-04T15:36:33.074Z,3.88
2022-08-04T15:39:16.474Z,3.60
2022-08-04T15:42:02.898Z,3.33
2022-08-04T15:44:48.883Z,2.58
2022-08-04T15:47:16.864Z,3.63
2022-08-04T15:49:44.629Z,5.45
2022-08-04T15:52:16.749Z,4.10
2022-08-04T15:54:52.328Z,3.50
2022-08-04T15:58:08.661Z,6.22
2022-08-04T16:00:56.605Z,4.10
2022-08-04T16:03:57.750Z,4.45
2022-08-04T16:06:21.682Z,4.93
2022-08-04T16:08:57.407Z,2.92
2022-08-04T16:11:32.605Z,2.55
2022-08-04T16:13:59.651Z,1.67
2022-08-04T16:16:42.019Z,1.95
2022-08-04T16:19:11.006Z,7.43
2022-08-04T16:21:54.696Z,3.30
2022-08-04T16:24:42.649Z,3.67
2022-08-04T16:27:10.700Z,2.28
2022-08-04T16:29:39.806Z,6.93
2022-08-04T16:32:06.920Z,2.90
2022-08-04T16:34:50.244Z,3.05
2022-08-04T16:37:38.183Z,5.63
2022-08-04T16:40:23.977Z,3.53
2022-08-04T16:42:50.980Z,2.22
2022-08-04T16:45:18.143Z,2.70
2022-08-04T16:47:47.379Z,3.03
2022-08-04T16:50:19.123Z,4.20
2022-08-04T16:52:51.462Z,3.30
2022-08-04T16:55:19.062Z,5.13
2022-08-04T16:57:53.923Z,4.22
2022-08-04T17:00:37.542Z,2.63
2022-08-04T17:03:09.440Z,4.05
2022-08-04T17:05:38.385Z,2.05
2022-08-04T17:08:29.183Z,6.55
2022-08-04T17:10:54.843Z,3.17
2022-08-04T17:14:02.636Z,3.83
2022-08-04T17:16:23.520Z,3.40
2022-08-04T17:18:52.851Z,3.28
2022-08-04T17:21:25.583Z,3.05
2022-08-04T17:24:13.077Z,2.97
2022-08-04T17:26:45.408Z,1.75
2022-08-04T17:29:20.075Z,4.70
2022-08-04T17:31:46.882Z,2.38
2022-08-04T17:34:19.458Z,3.47
2022-08-04T17:36:47.604Z,3.33
2022-08-04T17:39:21.412Z,2.60
2022-08-04T17:41:49.554Z,2.53
2022-08-04T17:44:17.566Z,2.95
2022-08-04T17:46:45.660Z,2.30
2022-08-04T17:49:17.780Z,2.47
2022-08-04T17:52:01.627Z,2.95
2022-08-04T17:54:37.359Z,3.92
2022-08-04T17:57:14.168Z,4.10
2022-08-04T17:59:57.030Z,2.47
2022-08-04T18:02:33.093Z,4.57
2022-08-04T18:05:08.026Z,4.30
2022-08-04T18:08:45.631Z,2.10
2022-08-04T18:10:51.582Z,3.85
2022-08-04T18:13:23.519Z,2.13
2022-08-04T18:15:51.174Z,3.28
2022-08-04T18:18:23.358Z,1.92
2022-08-04T18:20:50.432Z,2.47
2022-08-04T18:23:17.115Z,2.28
2022-08-04T18:25:51.072Z,2.05
2022-08-04T18:28:22.727Z,2.00
2022-08-04T18:30:55.544Z,1.75
2022-08-04T18:33:40.485Z,1.85
2022-08-04T18:36:32.564Z,2.25
2022-08-04T18:39:13.266Z,2.13
2022-08-04T18:42:00.806Z,3.38
2022-08-04T18:44:29.527Z,2.72
2022-08-04T18:46:57.620Z,2.25
2022-08-04T18:50:59.521Z,2.30
2022-08-04T18:52:30.650Z,2.08
2022-08-04T18:54:57.246Z,1.70
2022-08-04T18:57:58.733Z,1.60
2022-08-04T19:00:17.364Z,1.73
2022-08-04T19:02:46.798Z,2.35
2022-08-04T19:08:02.887Z,1.63
2022-08-04T19:10:47.278Z,1.60
2022-08-04T19:13:25.393Z,1.73
2022-08-04T19:15:53.960Z,1.35
2022-08-04T19:18:20.451Z,1.75
2022-08-04T19:20:48.981Z,1.75
2022-08-04T19:24:28.871Z,1.60
2022-08-04T19:26:05.720Z,2.20
2022-08-04T19:28:36.967Z,1.38
2022-08-04T19:31:05.849Z,1.65
2022-08-04T19:36:19.575Z,1.95
2022-08-04T19:38:46.469Z,1.95
2022-08-04T19:41:15.132Z,2.17
2022-08-04T19:43:46.734Z,1.65
2022-08-04T19:46:14.673Z,1.67
2022-08-04T19:48:44.592Z,1.35
2022-08-04T19:51:27.967Z,1.70
2022-08-04T19:53:59.405Z,1.45
2022-08-04T19:56:31.091Z,2.63
2022-08-04T19:59:07.625Z,1.02
2022-08-04T20:01:38.139Z,1.13
2022-08-04T20:04:11.545Z,1.00
2022-08-04T20:06:39.264Z,1.88
2022-08-04T20:09:26.731Z,1.00
2022-08-04T20:11:52.422Z,1.50
2022-08-04T20:14:19.634Z,1.52
2022-08-04T20:16:58.823Z,1.90
2022-08-04T20:19:27.784Z,1.13
2022-08-04T20:21:57.097Z,2.05
2022-08-04T20:24:39.236Z,3.53
2022-08-04T20:27:14.738Z,0.63
2022-08-04T20:29:48.719Z,2.38
2022-08-04T20:32:19.626Z,1.02
2022-08-04T20:34:47.320Z,1.35
2022-08-04T20:37:15.374Z,3.70
2022-08-04T20:39:42.608Z,2.03
2022-08-04T20:42:11.590Z,1.85
2022-08-04T20:44:42.135Z,0.85
2022-08-04T20:47:13.208Z,1.33
2022-08-04T20:49:40.587Z,0.82
2022-08-04T20:52:16.373Z,3.42
2022-08-04T20:54:48.088Z,0.60
2022-08-04T20:57:16.592Z,0.80
2022-08-04T20:59:59.667Z,3.60
2022-08-04T21:02:27.220Z,1.25
2022-08-04T21:04:53.801Z,2.28
2022-08-04T21:07:21.673Z,1.77
2022-08-04T21:09:50.094Z,1.33
2022-08-04T21:12:27.362Z,1.15
2022-08-04T21:15:01.130Z,0.63
2022-08-04T21:17:56.577Z,2.35
2022-08-04T21:20:27.750Z,1.83
2022-08-04T21:22:54.641Z,1.67
2022-08-04T21:25:22.240Z,1.67
2022-08-04T21:27:48.770Z,0.90
2022-08-04T21:30:25.130Z,0.90
2022-08-04T21:32:53.176Z,3.30
2022-08-04T21:35:22.059Z,4.05
2022-08-04T21:38:03.788Z,2.33
2022-08-04T21:40:50.899Z,4.15
2022-08-04T21:46:07.665Z,3.50
2022-08-04T21:48:34.206Z,1.30
2022-08-04T21:51:56.953Z,0.65
2022-08-04T21:54:03.099Z,1.88
2022-08-04T21:56:30.046Z,0.80
2022-08-04T21:58:58.911Z,0.90
2022-08-04T22:01:49.887Z,1.77
2022-08-04T22:04:13.411Z,1.25
2022-08-04T22:06:40.116Z,1.00
2022-08-04T22:09:14.325Z,1.80
2022-08-04T22:11:50.333Z,1.35
2022-08-04T22:14:27.542Z,1.02
2022-08-04T22:16:56.516Z,4.15
2022-08-04T22:19:39.738Z,4.63
2022-08-04T22:22:13.609Z,2.50
2022-08-04T22:24:51.451Z,1.35
2022-08-04T22:27:36.371Z,1.52
2022-08-04T22:30:09.254Z,1.17
2022-08-04T22:32:43.502Z,0.55
2022-08-04T22:35:38.525Z,1.10
2022-08-04T22:38:07.208Z,1.67
2022-08-04T22:40:44.122Z,0.95
2022-08-04T22:43:31.183Z,2.08
2022-08-04T22:45:59.503Z,1.27
2022-08-04T22:48:28.411Z,0.95
2022-08-04T22:50:58.763Z,1.48
2022-08-04T22:53:25.352Z,3.58
2022-08-04T22:56:07.741Z,2.95
2022-08-04T22:58:45.276Z,2.70
2022-08-04T23:01:13.403Z,3.83
2022-08-04T23:03:42.371Z,1.83
2022-08-04T23:06:24.528Z,2.15
2022-08-04T23:08:51.963Z,1.80
2022-08-04T23:11:18.479Z,1.40
2022-08-04T23:13:45.295Z,3.60
2022-08-04T23:16:12.320Z,3.42
2022-08-04T23:18:42.171Z,1.98
2022-08-04T23:21:12.171Z,0.45
2022-08-04T23:23:45.517Z,1.52
2022-08-04T23:26:22.404Z,0.77
2022-08-04T23:28:54.618Z,1.20
2022-08-04T23:31:21.084Z,1.80
2022-08-04T23:33:50.498Z,0.50
2022-08-04T23:36:19.416Z,1.15
2022-08-04T23:38:59.406Z,1.23
2022-08-04T23:41:26.579Z,0.57
2022-08-04T23:44:13.066Z,0.70
2022-08-04T23:46:44.084Z,1.00
2022-08-04T23:49:11.661Z,2.47
2022-08-04T23:51:43.295Z,0.50
2022-08-04T23:54:09.727Z,0.57
2022-08-04T23:56:37.907Z,2.83
2022-08-04T23:59:04.849Z,1.10
